Time;durP1;ratioP1;P1;durP2;ratioP2;P2;SDS_P1;SDS_P2;PMS_P1;PMS_P2;Temp;Humidity;BMP_temperature;BMP_pressure;BME280_temperature;BME280_humidity;BME280_pressure;Samples;Min_cycle;Max_cycle;Signal;HPM_P1;HPM_P2
2022/11/14 00:00:13;;;;;;;44.60;22.73;;;6.90;99.90;;;;;;4974981;28;20035;-90
2022/11/14 00:02:39;;;;;;;40.47;20.60;;;6.90;99.90;;;;;;4971747;28;20102;-91
2022/11/14 00:05:06;;;;;;;39.72;20.67;;;7.00;99.90;;;;;;4960145;28;20062;-89
2022/11/14 00:07:33;;;;;;;38.28;19.88;;;6.90;99.90;;;;;;4973137;28;20076;-89
2022/11/14 00:09:59;;;;;;;39.10;19.75;;;6.90;99.90;;;;;;4971385;28;20401;-89
2022/11/14 00:12:25;;;;;;;37.00;19.77;;;6.90;99.90;;;;;;4973351;28;20043;-90
2022/11/14 00:14:51;;;;;;;39.00;18.45;;;7.00;99.90;;;;;;4974600;28;20114;-92
2022/11/14 00:17:17;;;;;;;42.53;21.55;;;7.00;99.90;;;;;;4960017;28;20203;-93
2022/11/14 00:19:43;;;;;;;42.75;21.42;;;7.00;99.90;;;;;;4956055;28;20700;-90
2022/11/14 00:22:09;;;;;;;39.35;20.67;;;7.00;99.90;;;;;;4954662;28;20054;-88
2022/11/14 00:24:34;;;;;;;40.38;20.55;;;7.00;99.90;;;;;;4970176;28;20050;-90
2022/11/14 00:27:00;;;;;;;45.33;21.65;;;7.00;99.90;;;;;;4955580;28;20546;-88
2022/11/14 00:29:25;;;;;;;47.67;37.28;;;7.00;99.90;;;;;;4972846;28;20054;-90
2022/11/14 00:31:51;;;;;;;37.30;19.35;;;7.10;99.90;;;;;;4971919;28;20041;-91
2022/11/14 00:34:17;;;;;;;47.22;36.50;;;7.10;99.90;;;;;;4974075;28;20038;-93
2022/11/14 00:36:42;;;;;;;37.80;18.98;;;7.10;99.90;;;;;;4957264;28;20042;-91
2022/11/14 00:39:13;;;;;;;51.35;39.17;;;7.10;99.90;;;;;;4972514;28;20411;-93
2022/11/14 00:41:39;;;;;;;38.10;17.42;;;7.10;99.90;;;;;;4974425;28;20066;-91
2022/11/14 00:44:05;;;;;;;37.10;18.30;;;7.10;99.90;;;;;;4971841;28;20121;-89
2022/11/14 00:46:30;;;;;;;41.08;19.75;;;7.10;99.90;;;;;;4971503;28;20070;-88
2022/11/14 00:48:56;;;;;;;37.50;18.63;;;7.10;99.90;;;;;;4955839;28;20043;-94
2022/11/14 00:51:22;;;;;;;40.85;20.05;;;7.10;99.90;;;;;;4970760;28;20511;-88
2022/11/14 00:53:47;;;;;;;40.63;21.80;;;7.10;99.90;;;;;;4971410;28;20035;-89
2022/11/14 00:56:13;;;;;;;47.60;37.60;;;7.10;99.90;;;;;;4970128;28;20043;-90
2022/11/14 00:58:39;;;;;;;44.28;23.10;;;7.10;99.90;;;;;;4970758;28;20089;-93
2022/11/14 01:01:04;;;;;;;40.60;19.52;;;7.10;99.90;;;;;;4973012;28;20121;-88
2022/11/14 01:03:30;;;;;;;40.17;20.30;;;7.00;99.90;;;;;;4974761;28;20373;-93
2022/11/14 01:05:56;;;;;;;44.20;23.35;;;7.00;99.90;;;;;;4978083;28;20113;-93
2022/11/14 01:08:21;;;;;;;55.40;41.10;;;7.00;99.90;;;;;;4954681;28;20440;-90
2022/11/14 01:10:49;;;;;;;44.95;20.52;;;7.00;99.90;;;;;;4973636;28;20388;-90
2022/11/14 01:13:16;;;;;;;42.80;20.20;;;7.00;99.90;;;;;;4976510;28;20047;-94
2022/11/14 01:15:44;;;;;;;45.35;21.10;;;7.00;99.90;;;;;;4968818;28;20035;-90
2022/11/14 01:18:13;;;;;;;46.60;23.20;;;7.00;99.90;;;;;;4969696;28;20046;-91
2022/11/14 01:20:40;;;;;;;44.72;20.98;;;7.00;99.90;;;;;;4969813;28;20047;-89
2022/11/14 01:23:07;;;;;;;44.60;21.38;;;6.90;99.90;;;;;;4970342;28;20042;-89
2022/11/14 01:25:34;;;;;;;47.20;24.90;;;6.90;99.90;;;;;;4969837;28;20118;-91
2022/11/14 01:28:00;;;;;;;45.30;22.50;;;6.90;99.90;;;;;;4969407;28;20051;-91
2022/11/14 01:30:26;;;;;;;44.22;21.00;;;6.90;99.90;;;;;;4951856;28;20042;-92
2022/11/14 01:32:51;;;;;;;43.55;21.02;;;6.90;99.90;;;;;;4969643;28;20055;-95
2022/11/14 01:35:17;;;;;;;44.17;20.15;;;6.80;99.90;;;;;;4969976;28;20045;-90
2022/11/14 01:37:43;;;;;;;54.30;40.03;;;6.90;99.90;;;;;;4970072;28;20058;-91
2022/11/14 01:40:09;;;;;;;47.40;23.92;;;6.90;99.90;;;;;;4969844;28;20170;-88
2022/11/14 01:42:34;;;;;;;51.17;25.23;;;6.90;99.90;;;;;;4953044;28;20046;-86
2022/11/14 01:45:00;;;;;;;44.28;20.25;;;6.80;99.90;;;;;;4969329;28;20041;-92
2022/11/14 01:47:29;;;;;;;47.90;22.48;;;6.80;99.90;;;;;;4967861;28;20031;-90
2022/11/14 01:50:00;;;;;;;46.28;22.77;;;6.80;99.90;;;;;;4970548;28;20451;-90
2022/11/14 01:52:31;;;;;;;44.42;23.60;;;6.70;99.90;;;;;;4973307;28;20046;-91
2022/11/14 01:55:00;;;;;;;45.75;21.35;;;6.70;99.90;;;;;;4971661;28;20042;-88
2022/11/14 01:57:31;;;;;;;50.35;26.52;;;6.70;99.90;;;;;;4970635;28;20070;-94
2022/11/14 02:00:01;;;;;;;43.80;22.10;;;6.70;99.90;;;;;;4954513;28;20661;-94
2022/11/14 02:02:27;;;;;;;49.90;23.05;;;6.70;99.90;;;;;;4956052;28;20042;-93
2022/11/14 02:04:59;;;;;;;47.40;22.33;;;6.60;99.90;;;;;;4972441;28;20133;-92
2022/11/14 02:07:27;;;;;;;49.47;22.40;;;6.60;99.90;;;;;;4970152;28;20066;-88
2022/11/14 02:09:54;;;;;;;48.55;22.55;;;6.60;99.90;;;;;;4969409;28;20039;-88
2022/11/14 02:12:21;;;;;;;51.80;26.70;;;6.60;99.90;;;;;;4971463;28;20130;-92
2022/11/14 02:14:50;;;;;;;54.17;27.40;;;6.60;99.90;;;;;;4968835;28;20086;-90
2022/11/14 02:17:17;;;;;;;53.17;26.73;;;6.60;99.90;;;;;;4953363;28;20046;-91
2022/11/14 02:19:50;;;;;;;57.65;28.50;;;6.60;99.90;;;;;;4970984;28;20062;-89
2022/11/14 02:22:16;;;;;;;66.68;48.08;;;6.60;99.90;;;;;;4969003;28;20051;-89
2022/11/14 02:24:42;;;;;;;51.05;27.13;;;6.70;99.90;;;;;;4969399;28;20057;-88
2022/11/14 02:27:08;;;;;;;52.53;24.35;;;6.70;99.90;;;;;;4952247;28;20058;-88
2022/11/14 02:29:34;;;;;;;56.25;27.85;;;6.70;99.90;;;;;;4967760;28;20062;-88
2022/11/14 02:32:01;;;;;;;54.10;28.40;;;6.70;99.90;;;;;;4974609;28;20062;-94
2022/11/14 02:34:27;;;;;;;53.55;27.02;;;6.70;99.90;;;;;;4952614;28;20035;-89
2022/11/14 02:36:52;;;;;;;56.20;25.30;;;6.70;99.90;;;;;;4971486;28;20077;-90
2022/11/14 02:39:18;;;;;;;54.90;28.02;;;6.60;99.90;;;;;;4968761;28;20050;-91
2022/11/14 02:41:44;;;;;;;58.40;28.52;;;6.70;99.90;;;;;;4967574;28;20039;-89
2022/11/14 02:44:09;;;;;;;53.92;25.50;;;6.70;99.90;;;;;;4971889;28;20035;-89
2022/11/14 02:46:35;;;;;;;53.38;24.88;;;6.60;99.90;;;;;;4952830;28;20049;-91
2022/11/14 02:49:00;;;;;;;54.85;27.17;;;6.60;99.90;;;;;;4952686;28;20063;-88
2022/11/14 02:51:26;;;;;;;56.55;24.92;;;6.70;99.90;;;;;;4968749;28;20041;-88
2022/11/14 02:53:52;;;;;;;58.20;25.95;;;6.70;99.90;;;;;;4968922;28;20100;-90
2022/11/14 02:56:17;;;;;;;57.38;30.00;;;6.70;99.90;;;;;;4972934;28;20067;-90
2022/11/14 02:58:43;;;;;;;54.80;28.67;;;6.70;99.90;;;;;;4969120;28;20849;-88
2022/11/14 03:01:08;;;;;;;55.47;25.75;;;6.70;99.90;;;;;;4970216;28;20047;-87
2022/11/14 03:03:34;;;;;;;51.90;23.25;;;6.70;99.90;;;;;;4967539;28;20054;-89
2022/11/14 03:06:00;;;;;;;55.88;27.10;;;6.70;99.90;;;;;;4966395;28;20054;-90
2022/11/14 03:08:26;;;;;;;53.22;25.00;;;6.70;99.90;;;;;;4970060;28;20051;-88
2022/11/14 03:10:52;;;;;;;54.25;26.60;;;6.70;99.90;;;;;;4968973;28;20054;-92
2022/11/14 03:13:18;;;;;;;55.28;25.48;;;6.70;99.90;;;;;;4969300;28;20030;-92
2022/11/14 03:15:44;;;;;;;50.97;25.45;;;6.70;99.90;;;;;;4950443;28;20041;-90
2022/11/14 03:18:09;;;;;;;71.28;50.35;;;6.70;99.90;;;;;;4969407;28;20133;-88
2022/11/14 03:20:35;;;;;;;54.65;26.70;;;6.80;99.90;;;;;;4952455;28;20054;-89
2022/11/14 03:23:01;;;;;;;50.95;24.80;;;6.80;99.90;;;;;;4969266;28;20053;-90
2022/11/14 03:25:26;;;;;;;53.28;27.23;;;6.70;99.90;;;;;;4967353;28;20043;-88
2022/11/14 03:27:52;;;;;;;53.45;24.83;;;6.70;99.90;;;;;;4966292;28;20403;-95
2022/11/14 03:30:18;;;;;;;52.17;25.08;;;6.70;99.90;;;;;;4952032;28;20082;-89
2022/11/14 03:32:43;;;;;;;51.60;27.08;;;6.60;99.90;;;;;;4968657;28;20042;-90
2022/11/14 03:35:09;;;;;;;58.03;29.20;;;6.60;99.90;;;;;;4968309;28;20495;-88
2022/11/14 03:37:35;;;;;;;56.22;28.98;;;6.60;99.90;;;;;;4967123;28;20388;-89
2022/11/14 03:40:01;;;;;;;58.58;27.45;;;6.60;99.90;;;;;;4965036;28;20049;-88
2022/11/14 03:42:26;;;;;;;57.00;28.85;;;6.60;99.90;;;;;;4969974;28;20034;-89
2022/11/14 03:44:52;;;;;;;54.72;26.42;;;6.60;99.90;;;;;;4967946;28;20050;-90
2022/11/14 03:47:18;;;;;;;51.40;26.60;;;6.60;99.90;;;;;;4967330;28;20043;-90
2022/11/14 03:49:43;;;;;;;67.80;50.40;;;6.60;99.90;;;;;;4967442;28;20050;-89
2022/11/14 03:52:11;;;;;;;56.38;29.95;;;6.60;99.90;;;;;;4967899;28;20535;-89
2022/11/14 03:54:37;;;;;;;51.60;24.17;;;6.60;99.90;;;;;;4966226;28;20050;-89
2022/11/14 03:57:03;;;;;;;56.30;29.67;;;6.60;99.90;;;;;;4968182;28;20684;-88
2022/11/14 03:59:29;;;;;;;55.17;26.17;;;6.60;99.90;;;;;;4967651;28;20038;-90
2022/11/14 04:01:55;;;;;;;52.53;25.25;;;6.60;99.90;;;;;;4969968;28;20110;-91
2022/11/14 04:04:21;;;;;;;53.80;30.58;;;6.60;99.90;;;;;;4969987;28;20045;-89
2022/11/14 04:06:47;;;;;;;51.28;24.33;;;6.60;99.90;;;;;;4966481;28;20059;-88
2022/11/14 04:09:12;;;;;;;55.45;28.33;;;6.60;99.90;;;;;;4969650;28;20066;-92
2022/11/14 04:11:38;;;;;;;51.10;27.70;;;6.60;99.90;;;;;;4951787;28;20031;-91
2022/11/14 04:14:04;;;;;;;53.70;25.88;;;6.50;99.90;;;;;;4968767;28;20093;-90
2022/11/14 04:16:30;;;;;;;54.33;29.58;;;6.50;99.90;;;;;;4967709;28;20082;-91
2022/11/14 04:18:55;;;;;;;54.85;29.35;;;6.50;99.90;;;;;;4952597;28;20396;-92
2022/11/14 04:21:21;;;;;;;55.65;28.98;;;6.60;99.90;;;;;;4952046;28;20046;-93
2022/11/14 04:23:46;;;;;;;68.00;49.97;;;6.60;99.90;;;;;;4968669;28;20074;-90
2022/11/14 04:26:12;;;;;;;52.55;27.92;;;6.60;99.90;;;;;;4969616;28;20090;-90
2022/11/14 04:28:38;;;;;;;49.55;24.48;;;6.60;99.90;;;;;;4972129;28;20063;-91
2022/11/14 04:31:03;;;;;;;49.72;24.63;;;6.60;99.90;;;;;;4967551;28;20036;-92
2022/11/14 04:33:29;;;;;;;54.63;27.73;;;6.60;99.90;;;;;;4969308;28;20039;-90
2022/11/14 04:35:55;;;;;;;55.15;30.42;;;6.60;99.90;;;;;;4970054;28;20043;-90
2022/11/14 04:38:20;;;;;;;54.65;29.98;;;6.60;99.90;;;;;;4954396;28;20117;-93
2022/11/14 04:40:52;;;;;;;49.17;28.10;;;6.60;99.90;;;;;;4955227;28;20406;-90
2022/11/14 04:43:19;;;;;;;53.33;29.27;;;6.60;99.90;;;;;;4972463;28;20125;-91
2022/11/14 04:45:45;;;;;;;53.95;25.13;;;6.60;99.90;;;;;;4971180;28;20101;-91
2022/11/14 04:48:11;;;;;;;51.00;27.23;;;6.60;99.90;;;;;;4970534;28;20050;-92
2022/11/14 04:50:37;;;;;;;48.58;24.15;;;6.60;99.90;;;;;;4954613;28;20126;-90
2022/11/14 04:53:03;;;;;;;54.05;26.27;;;6.60;99.90;;;;;;4954246;28;20101;-87
2022/11/14 04:55:28;;;;;;;55.72;29.15;;;6.60;99.90;;;;;;4970652;28;20038;-89
2022/11/14 04:57:55;;;;;;;49.88;24.67;;;6.60;99.90;;;;;;4970698;28;20043;-89
2022/11/14 05:00:22;;;;;;;53.40;27.15;;;6.60;99.90;;;;;;4972133;28;20070;-92
2022/11/14 05:02:47;;;;;;;51.50;27.08;;;6.60;99.90;;;;;;4953657;28;20043;-89
2022/11/14 05:05:13;;;;;;;51.05;24.88;;;6.60;99.90;;;;;;4970355;28;20181;-91
2022/11/14 05:07:39;;;;;;;55.45;29.08;;;6.60;99.90;;;;;;4953716;28;20220;-91
2022/11/14 05:10:05;;;;;;;54.70;30.35;;;6.60;99.90;;;;;;4970339;28;20174;-94
2022/11/14 05:12:31;;;;;;;51.60;26.83;;;6.60;99.90;;;;;;4971944;28;20049;-91
2022/11/14 05:14:57;;;;;;;51.35;27.15;;;6.60;99.90;;;;;;4957208;28;20031;-93
2022/11/14 05:17:22;;;;;;;49.22;24.92;;;6.60;99.90;;;;;;4958535;28;20035;-92
2022/11/14 05:19:48;;;;;;;54.35;27.33;;;6.70;99.90;;;;;;4970602;28;20241;-89
2022/11/14 05:22:14;;;;;;;57.38;30.60;;;6.60;99.90;;;;;;4951892;28;20128;-90
2022/11/14 05:24:39;;;;;;;56.78;29.77;;;6.70;99.90;;;;;;4970957;28;20082;-90
2022/11/14 05:27:05;;;;;;;52.13;29.23;;;6.70;99.90;;;;;;4970357;28;20059;-92
2022/11/14 05:29:30;;;;;;;52.10;25.75;;;6.70;99.90;;;;;;4954257;28;20126;-92
2022/11/14 05:31:56;;;;;;;56.00;30.58;;;6.70;99.90;;;;;;4972104;28;20038;-90
2022/11/14 05:34:22;;;;;;;53.53;25.58;;;6.70;99.90;;;;;;4953959;28;20038;-92
2022/11/14 05:36:48;;;;;;;53.67;26.95;;;6.70;99.90;;;;;;4972690;28;20070;-91
2022/11/14 05:39:15;;;;;;;53.67;28.02;;;6.70;99.90;;;;;;4968856;28;20093;-91
2022/11/14 05:41:40;;;;;;;52.85;29.48;;;6.70;99.90;;;;;;4970945;28;20094;-89
2022/11/14 05:44:06;;;;;;;71.75;49.20;;;6.70;99.90;;;;;;4969879;28;20589;-88
2022/11/14 05:46:32;;;;;;;51.38;28.65;;;6.70;99.90;;;;;;4969521;28;20067;-90
2022/11/14 05:48:58;;;;;;;55.58;29.35;;;6.70;99.90;;;;;;4954416;28;20049;-92
2022/11/14 05:51:23;;;;;;;51.72;26.60;;;6.70;99.90;;;;;;4968736;28;20046;-91
2022/11/14 05:53:49;;;;;;;55.63;29.60;;;6.70;99.90;;;;;;4970368;28;20061;-90
2022/11/14 05:56:15;;;;;;;52.85;26.90;;;6.60;99.90;;;;;;4970399;28;20109;-91
2022/11/14 05:58:40;;;;;;;53.38;26.45;;;6.60;99.90;;;;;;4971108;28;20463;-93
2022/11/14 06:01:15;;;;;;;50.25;26.02;;;6.60;99.90;;;;;;4970415;28;20061;-89
2022/11/14 06:03:42;;;;;;;52.92;25.33;;;6.60;99.90;;;;;;4968201;28;20100;-93
2022/11/14 06:06:10;;;;;;;54.90;25.92;;;6.60;99.90;;;;;;4967080;28;20043;-90
2022/11/14 06:08:37;;;;;;;56.35;27.00;;;6.50;99.90;;;;;;4963993;28;20066;-89
2022/11/14 06:11:11;;;;;;;55.83;26.92;;;6.50;99.90;;;;;;4970679;28;20074;-92
2022/11/14 06:13:37;;;;;;;52.78;26.00;;;6.50;99.90;;;;;;4970866;28;20203;-90
2022/11/14 06:16:05;;;;;;;51.55;24.67;;;6.40;99.90;;;;;;4953230;28;20068;-90
2022/11/14 06:18:32;;;;;;;62.40;30.92;;;6.40;99.90;;;;;;4965679;28;20142;-96
2022/11/14 06:21:06;;;;;;;73.32;51.33;;;6.40;99.90;;;;;;4967730;28;20045;-95
2022/11/14 06:23:31;;;;;;;62.10;29.92;;;6.40;99.90;;;;;;4969309;28;20372;-91
2022/11/14 06:26:06;;;;;;;60.67;29.10;;;6.40;99.90;;;;;;4968557;28;20045;-90
2022/11/14 06:28:31;;;;;;;54.90;25.30;;;6.30;99.90;;;;;;4952938;28;20059;-92
2022/11/14 06:31:02;;;;;;;51.97;24.63;;;6.30;99.90;;;;;;4969701;28;20045;-91
2022/11/14 06:33:31;;;;;;;56.60;27.00;;;6.30;99.90;;;;;;4952621;28;20038;-92
2022/11/14 06:36:02;;;;;;;59.67;30.92;;;6.30;99.90;;;;;;4969817;28;20038;-90
2022/11/14 06:38:30;;;;;;;56.72;27.17;;;6.30;99.90;;;;;;4968271;28;20061;-89
2022/11/14 06:41:19;;;;;;;52.58;28.48;;;6.30;99.90;;;;;;4965407;28;20042;-89
2022/11/14 06:43:47;;;;;;;57.75;28.13;;;6.30;99.90;;;;;;4968427;28;20050;-92
2022/11/14 06:46:16;;;;;;;60.85;28.75;;;6.30;99.90;;;;;;4952129;28;20043;-90
2022/11/14 06:48:42;;;;;;;60.85;31.90;;;6.30;99.90;;;;;;4967255;28;20134;-92
2022/11/14 06:51:10;;;;;;;62.22;31.52;;;6.30;99.90;;;;;;4952101;28;20066;-91
2022/11/14 06:53:36;;;;;;;57.17;29.60;;;6.30;99.90;;;;;;4967699;28;20114;-91
2022/11/14 06:56:08;;;;;;;59.42;28.27;;;6.30;99.90;;;;;;4968231;28;20035;-91
2022/11/14 06:58:39;;;;;;;64.82;30.92;;;6.20;99.90;;;;;;4952744;28;20047;-94
2022/11/14 07:01:15;;;;;;;59.35;28.20;;;6.30;99.90;;;;;;4952075;28;20086;-91
2022/11/14 07:03:41;;;;;;;57.83;30.38;;;6.20;99.90;;;;;;4967304;28;20058;-91
2022/11/14 07:06:15;;;;;;;60.78;31.38;;;6.20;99.90;;;;;;4983115;28;20507;-89
2022/11/14 07:08:41;;;;;;;59.42;28.30;;;6.20;99.90;;;;;;4966817;28;20113;-89
2022/11/14 07:11:09;;;;;;;66.82;32.40;;;6.20;99.90;;;;;;4955745;28;20046;-89
2022/11/14 07:13:36;;;;;;;64.07;31.45;;;6.20;99.90;;;;;;4972023;28;20176;-91
2022/11/14 07:16:02;;;;;;;63.70;33.10;;;6.20;99.90;;;;;;4988841;28;20550;-91
2022/11/14 07:18:32;;;;;;;62.15;32.60;;;6.10;99.90;;;;;;4986222;28;20085;-92
2022/11/14 07:21:02;;;;;;;68.75;33.95;;;6.10;99.90;;;;;;4971512;28;20054;-90
2022/11/14 07:23:29;;;;;;;66.63;31.90;;;6.10;99.90;;;;;;4971968;28;20058;-94
2022/11/14 07:25:58;;;;;;;66.60;30.95;;;6.00;99.90;;;;;;4971040;28;20125;-90
2022/11/14 07:28:24;;;;;;;58.67;30.00;;;6.00;99.90;;;;;;4972451;28;20165;-91
2022/11/14 07:30:49;;;;;;;52.85;26.38;;;5.90;99.90;;;;;;4954303;28;20117;-91
2022/11/14 07:33:15;;;;;;;60.33;27.20;;;5.90;99.90;;;;;;4969132;28;20420;-90
2022/11/14 07:35:41;;;;;;;56.45;27.38;;;5.90;99.90;;;;;;4988064;28;20038;-89
2022/11/14 07:38:06;;;;;;;64.57;30.45;;;5.90;99.90;;;;;;4958068;28;20049;-91
2022/11/14 07:40:32;;;;;;;70.20;33.33;;;6.00;99.90;;;;;;4990234;28;20285;-89
2022/11/14 07:42:59;;;;;;;66.25;33.38;;;5.90;99.90;;;;;;4973114;28;20034;-92
2022/11/14 07:45:26;;;;;;;68.22;34.47;;;6.00;99.90;;;;;;4989016;28;20471;-89
2022/11/14 07:48:00;;;;;;;62.83;28.42;;;6.10;99.90;;;;;;4973559;28;20042;-91
2022/11/14 07:50:27;;;;;;;68.88;34.80;;;6.00;99.90;;;;;;4954803;28;20041;-90
2022/11/14 07:52:54;;;;;;;63.90;27.70;;;6.00;99.90;;;;;;4951749;28;20098;-92
2022/11/14 07:55:20;;;;;;;66.10;33.40;;;6.00;99.90;;;;;;4970464;28;20043;-91
2022/11/14 07:57:47;;;;;;;55.67;26.90;;;6.00;99.90;;;;;;4971109;28;20041;-90
2022/11/14 08:00:14;;;;;;;58.00;26.48;;;6.00;99.90;;;;;;4971251;28;20060;-93
2022/11/14 08:02:39;;;;;;;60.15;29.45;;;6.00;99.90;;;;;;4956470;28;20137;-92
2022/11/14 08:05:05;;;;;;;63.40;33.17;;;6.00;99.90;;;;;;4959870;28;20046;-90
2022/11/14 08:07:31;;;;;;;66.22;32.88;;;6.10;99.90;;;;;;4974621;28;20074;-91
2022/11/14 08:09:56;;;;;;;60.85;29.40;;;6.10;99.90;;;;;;4957835;28;20484;-91
2022/11/14 08:12:22;;;;;;;64.72;32.30;;;6.10;99.90;;;;;;4975280;28;20120;-91
2022/11/14 08:14:48;;;;;;;60.55;29.58;;;6.20;99.90;;;;;;4958113;28;20391;-89
2022/11/14 08:17:13;;;;;;;59.08;30.98;;;6.20;99.90;;;;;;4994166;28;20041;-89
2022/11/14 08:19:39;;;;;;;57.20;30.90;;;6.30;99.90;;;;;;4996518;28;20458;-93
2022/11/14 08:22:06;;;;;;;64.57;32.58;;;6.30;99.90;;;;;;4991968;28;20174;-92
2022/11/14 08:24:31;;;;;;;62.67;32.40;;;6.30;99.90;;;;;;4975924;28;20042;-91
2022/11/14 08:26:57;;;;;;;56.47;28.17;;;6.30;99.90;;;;;;4971899;28;20388;-91
2022/11/14 08:29:23;;;;;;;61.35;32.72;;;6.30;99.90;;;;;;4970609;28;20038;-91
2022/11/14 08:31:49;;;;;;;57.63;29.13;;;6.30;99.90;;;;;;4992691;28;20045;-94
2022/11/14 08:34:14;;;;;;;64.00;33.05;;;6.40;99.90;;;;;;4960476;28;20050;-91
2022/11/14 08:36:40;;;;;;;53.03;26.20;;;6.40;99.90;;;;;;4978814;28;20042;-94
2022/11/14 08:39:05;;;;;;;55.00;29.65;;;6.40;99.90;;;;;;4979963;28;20053;-95
2022/11/14 08:41:31;;;;;;;59.03;27.05;;;6.50;99.90;;;;;;4960756;28;20034;-89
2022/11/14 08:44:02;;;;;;;52.83;26.08;;;6.50;99.90;;;;;;4974843;28;20053;-88
2022/11/14 08:46:28;;;;;;;57.55;28.42;;;6.40;99.90;;;;;;4956323;28;20044;-94
2022/11/14 08:48:54;;;;;;;53.92;29.20;;;6.50;99.90;;;;;;4978257;28;20145;-94
2022/11/14 08:51:19;;;;;;;56.53;26.88;;;6.50;99.90;;;;;;4955483;28;20131;-95
2022/11/14 08:53:45;;;;;;;53.65;27.38;;;6.50;99.90;;;;;;4974330;28;20152;-93
2022/11/14 08:56:10;;;;;;;59.08;28.52;;;6.40;99.90;;;;;;4959440;28;20053;-94
2022/11/14 08:58:36;;;;;;;56.05;29.55;;;6.40;99.90;;;;;;4957085;28;20100;-91
2022/11/14 09:01:04;;;;;;;57.67;26.67;;;6.40;99.90;;;;;;4958262;28;20046;-95
2022/11/14 09:03:29;;;;;;;52.17;25.67;;;6.40;99.90;;;;;;4974161;28;20038;-94
2022/11/14 09:05:55;;;;;;;54.65;26.75;;;6.40;99.90;;;;;;4966016;28;20050;-93
2022/11/14 09:08:22;;;;;;;52.88;28.05;;;6.40;99.90;;;;;;4966752;28;20035;-93
2022/11/14 09:10:48;;;;;;;67.00;47.22;;;6.40;99.90;;;;;;4975021;28;20045;-94
2022/11/14 09:13:14;;;;;;;54.67;28.73;;;6.50;99.90;;;;;;4977532;28;20042;-93
2022/11/14 09:15:39;;;;;;;57.35;27.58;;;6.50;99.90;;;;;;4958386;28;20422;-90
2022/11/14 09:18:05;;;;;;;55.08;29.70;;;6.50;99.90;;;;;;4977913;28;20398;-90
2022/11/14 09:20:31;;;;;;;54.75;25.40;;;6.50;99.90;;;;;;4990958;28;20042;-91
2022/11/14 09:23:00;;;;;;;52.40;24.02;;;6.50;99.90;;;;;;5007600;28;20039;-93
2022/11/14 09:25:27;;;;;;;47.97;24.88;;;6.50;99.90;;;;;;4982722;28;20061;-91
2022/11/14 09:27:53;;;;;;;52.88;25.50;;;6.50;99.90;;;;;;4982993;28;20376;-88
2022/11/14 09:30:18;;;;;;;54.38;28.58;;;6.50;99.90;;;;;;4998469;28;20066;-89
2022/11/14 09:32:44;;;;;;;54.30;28.33;;;6.60;99.90;;;;;;4976328;28;20077;-89
2022/11/14 09:35:11;;;;;;;50.33;28.50;;;6.60;99.90;;;;;;5009185;28;20096;-91
2022/11/14 09:37:37;;;;;;;57.42;28.63;;;6.70;99.90;;;;;;4993538;28;20038;-92
2022/11/14 09:40:04;;;;;;;50.30;26.75;;;6.70;99.90;;;;;;4974213;28;20498;-91
2022/11/14 09:42:48;;;;;;;52.30;27.38;;;6.70;99.90;;;;;;4978461;28;20046;-91
2022/11/14 09:45:17;;;;;;;52.63;25.20;;;6.80;99.90;;;;;;4986469;28;20045;-91
2022/11/14 09:47:53;;;;;;;54.60;26.30;;;6.80;99.90;;;;;;4977046;28;20042;-92
2022/11/14 09:50:25;;;;;;;48.30;22.77;;;6.80;99.90;;;;;;4994394;28;20085;-90
2022/11/14 09:53:00;;;;;;;50.25;24.80;;;6.90;99.90;;;;;;4975693;28;20074;-92
2022/11/14 09:55:31;;;;;;;49.20;26.52;;;6.90;99.90;;;;;;4993216;28;20371;-93
2022/11/14 09:57:57;;;;;;;53.28;28.35;;;7.00;99.90;;;;;;4958553;28;20042;-93
2022/11/14 10:00:26;;;;;;;47.40;23.90;;;7.00;99.90;;;;;;4990955;28;20078;-92
2022/11/14 10:03:15;;;;;;;50.42;27.00;;;7.00;99.90;;;;;;4983701;28;20188;-92
2022/11/14 10:06:06;;;;;;;54.00;28.52;;;7.00;99.90;;;;;;4985769;28;20155;-91
2022/11/14 10:08:48;;;;;;;52.20;28.60;;;7.10;99.90;;;;;;4978117;28;20046;-95
2022/11/14 10:11:28;;;;;;;54.65;25.95;;;7.10;99.90;;;;;;4958066;28;20369;-89
2022/11/14 10:14:18;;;;;;;47.40;23.70;;;7.10;99.90;;;;;;4959233;28;20059;-92
2022/11/14 10:17:18;;;;;;;46.33;25.98;;;7.10;99.90;;;;;;4988213;28;20046;-95
2022/11/14 10:20:22;;;;;;;46.40;24.52;;;7.20;99.90;;;;;;4939666;28;20101;-93
2022/11/14 10:23:07;;;;;;;49.67;25.90;;;7.20;99.90;;;;;;4965521;28;20046;-91
2022/11/14 10:26:12;;;;;;;51.42;29.23;;;7.30;99.90;;;;;;4971846;28;20043;-92
2022/11/14 10:29:06;;;;;;;43.17;24.75;;;7.40;99.90;;;;;;4971546;28;20038;-93
2022/11/14 10:31:50;;;;;;;47.88;25.63;;;7.50;99.90;;;;;;4968855;28;20121;-93
2022/11/14 10:34:30;;;;;;;47.63;38.70;;;7.60;99.90;;;;;;4973425;28;20045;-93
2022/11/14 10:37:23;;;;;;;43.35;24.92;;;7.70;99.90;;;;;;4958061;28;20077;-95
2022/11/14 10:39:53;;;;;;;42.58;23.23;;;7.80;99.90;;;;;;4958562;28;20046;-93
2022/11/14 10:42:38;;;;;;;46.97;37.58;;;7.80;99.90;;;;;;4973989;28;20035;-94
2022/11/14 10:45:25;;;;;;;44.97;27.20;;;7.90;99.90;;;;;;4969606;28;20054;-91
2022/11/14 10:47:57;;;;;;;46.30;24.10;;;8.00;99.90;;;;;;4962703;28;20053;-95
2022/11/14 10:50:39;;;;;;;48.78;39.22;;;8.00;99.90;;;;;;4985829;28;20085;-95
2022/11/14 10:53:19;;;;;;;46.50;37.47;;;8.00;99.90;;;;;;4966206;28;20121;-95
2022/11/14 10:55:49;;;;;;;46.35;36.83;;;8.10;99.90;;;;;;4989117;28;20034;-96
2022/11/14 10:58:15;;;;;;;43.15;26.38;;;8.10;99.90;;;;;;4972038;28;20081;-94
2022/11/14 11:00:40;;;;;;;46.40;27.20;;;8.00;99.90;;;;;;4962578;28;20038;-93
2022/11/14 11:03:06;;;;;;;45.30;36.45;;;7.90;99.90;;;;;;4976416;28;20096;-93
2022/11/14 11:05:48;;;;;;;42.05;26.08;;;7.90;99.90;;;;;;4985922;28;20142;-92
2022/11/14 11:11:28;;;;;;;41.65;23.38;;;7.80;99.90;;;;;;4974428;28;20042;-93
2022/11/14 11:13:56;;;;;;;38.65;24.40;;;7.70;99.90;;;;;;4955582;28;20049;-92
2022/11/14 11:16:23;;;;;;;43.20;36.15;;;7.80;99.90;;;;;;4961996;28;20517;-95
2022/11/14 11:18:49;;;;;;;41.92;23.58;;;7.90;99.90;;;;;;4966425;28;20042;-95
2022/11/14 11:21:22;;;;;;;44.08;24.10;;;7.80;99.90;;;;;;4962475;28;20463;-89
2022/11/14 11:23:55;;;;;;;37.95;22.88;;;7.80;99.90;;;;;;4975611;28;20042;-95
2022/11/14 11:26:24;;;;;;;41.78;34.92;;;7.80;99.90;;;;;;4982652;28;20076;-95
2022/11/14 11:29:11;;;;;;;43.55;36.05;;;7.90;99.90;;;;;;4983442;28;20062;-94
2022/11/14 11:31:58;;;;;;;41.78;25.67;;;8.00;99.90;;;;;;4977755;28;20042;-92
2022/11/14 11:34:32;;;;;;;41.78;22.75;;;7.90;99.90;;;;;;4958260;28;20112;-90
2022/11/14 11:37:26;;;;;;;39.45;24.73;;;7.90;99.90;;;;;;4958578;28;20047;-92
2022/11/14 11:39:55;;;;;;;40.40;22.85;;;7.90;99.90;;;;;;4974807;28;20066;-96
2022/11/14 11:42:44;;;;;;;38.42;23.65;;;7.90;99.90;;;;;;4963727;28;20042;-95
2022/11/14 11:45:16;;;;;;;41.70;35.03;;;8.00;99.90;;;;;;4964596;28;20126;-94
2022/11/14 11:47:45;;;;;;;37.90;23.63;;;8.10;99.90;;;;;;4963989;28;20157;-93
2022/11/14 11:50:16;;;;;;;41.80;34.65;;;8.10;99.90;;;;;;4967095;28;20513;-93
2022/11/14 11:52:50;;;;;;;42.85;34.30;;;8.10;99.90;;;;;;4980241;28;20073;-96
2022/11/14 11:55:21;;;;;;;38.67;24.02;;;8.20;99.90;;;;;;4982823;28;20057;-95
2022/11/14 11:58:01;;;;;;;36.47;18.40;;;8.20;99.90;;;;;;4973808;28;20406;-95
2022/11/14 12:00:28;;;;;;;37.78;19.80;;;8.20;99.90;;;;;;4980901;28;20308;-94
2022/11/14 12:02:55;;;;;;;38.80;31.38;;;8.20;99.90;;;;;;4967259;28;20081;-95
2022/11/14 12:05:26;;;;;;;41.00;33.63;;;8.30;99.90;;;;;;4977650;28;20145;-94
2022/11/14 12:08:28;;;;;;;35.13;20.70;;;8.40;99.90;;;;;;4958402;28;20058;-95
2022/11/14 12:10:55;;;;;;;37.60;20.45;;;8.40;99.90;;;;;;4983147;28;20042;-94
2022/11/14 12:13:33;;;;;;;33.05;20.90;;;8.40;99.90;;;;;;4979708;28;20039;-89
2022/11/14 12:16:15;;;;;;;38.35;20.77;;;8.40;99.90;;;;;;4957072;28;20054;-95
2022/11/14 12:18:49;;;;;;;37.47;31.00;;;8.40;99.90;;;;;;4959071;28;20416;-89
2022/11/14 12:21:42;;;;;;;36.97;30.65;;;8.40;99.90;;;;;;4959058;28;20046;-96
2022/11/14 12:24:19;;;;;;;35.63;29.58;;;8.50;99.90;;;;;;4958825;28;20102;-95
2022/11/14 12:27:09;;;;;;;37.40;28.75;;;8.50;99.90;;;;;;4974432;28;20097;-93
2022/11/14 12:29:57;;;;;;;35.83;29.92;;;8.60;99.90;;;;;;4955453;28;20039;-94
2022/11/14 12:32:33;;;;;;;36.83;20.40;;;8.60;99.90;;;;;;4982378;28;20038;-94
2022/11/14 12:35:04;;;;;;;33.65;20.77;;;8.60;99.90;;;;;;4970468;28;20094;-94
2022/11/14 12:37:36;;;;;;;30.60;16.80;;;8.50;99.90;;;;;;4973346;28;20063;-95
2022/11/14 12:40:07;;;;;;;34.33;28.83;;;8.60;99.90;;;;;;4987203;28;20066;-95
2022/11/14 12:42:34;;;;;;;31.88;18.80;;;8.70;99.90;;;;;;4963597;28;20047;-95
2022/11/14 12:45:00;;;;;;;35.95;29.02;;;8.70;99.90;;;;;;4974393;28;20053;-92
2022/11/14 12:47:27;;;;;;;33.17;28.30;;;8.70;99.90;;;;;;4964798;28;20039;-95